createdAt,value
2017-12-21T00:00:16.420Z,3.50
2017-12-21T00:02:43.975Z,3.90
2017-12-21T00:05:11.434Z,4.30
2017-12-21T00:07:38.926Z,3.93
2017-12-21T00:10:06.392Z,3.97
2017-12-21T00:12:33.889Z,3.80
2017-12-21T00:15:02.119Z,3.57
2017-12-21T00:17:29.605Z,3.73
2017-12-21T00:19:57.267Z,3.20
2017-12-21T00:22:36.655Z,4.10
2017-12-21T00:25:04.130Z,3.27
2017-12-21T00:27:31.610Z,3.13
2017-12-21T00:29:59.078Z,3.00
2017-12-21T00:32:26.550Z,3.57
2017-12-21T00:34:54.775Z,3.50
2017-12-21T00:37:22.246Z,3.13
2017-12-21T00:39:49.715Z,2.93
2017-12-21T00:42:17.183Z,2.57
2017-12-21T00:44:44.649Z,3.50
2017-12-21T00:47:12.144Z,4.00
2017-12-21T00:49:39.634Z,2.90
2017-12-21T00:52:07.120Z,3.10
2017-12-21T00:54:35.367Z,3.40
2017-12-21T00:57:02.870Z,2.90
2017-12-21T00:59:31.092Z,3.00
2017-12-21T01:01:58.559Z,3.77
2017-12-21T01:04:26.044Z,3.17
2017-12-21T01:06:53.510Z,2.73
2017-12-21T01:09:21.751Z,2.70
2017-12-21T01:11:49.220Z,2.77
2017-12-21T01:14:16.696Z,3.97
2017-12-21T01:16:44.151Z,3.00
2017-12-21T01:19:11.616Z,2.97
2017-12-21T01:21:39.846Z,3.40
2017-12-21T01:24:07.338Z,3.20
2017-12-21T01:26:34.796Z,3.60
2017-12-21T01:29:02.292Z,2.53
2017-12-21T01:31:30.524Z,3.60
2017-12-21T01:33:58.007Z,3.40
2017-12-21T01:36:26.245Z,3.97
2017-12-21T01:38:53.720Z,2.87
2017-12-21T01:41:21.215Z,2.70
2017-12-21T01:43:49.451Z,2.23
2017-12-21T01:46:16.928Z,2.57
2017-12-21T01:48:44.398Z,2.33
2017-12-21T01:51:12.628Z,2.33
2017-12-21T01:53:40.121Z,1.73
2017-12-21T01:56:07.587Z,1.80
2017-12-21T01:58:35.075Z,1.77
2017-12-21T02:01:02.523Z,1.80
2017-12-21T02:03:29.997Z,2.03
2017-12-21T02:05:57.460Z,1.70
2017-12-21T02:08:24.933Z,1.83
2017-12-21T02:10:52.389Z,2.10
2017-12-21T02:13:19.880Z,1.67
2017-12-21T02:15:47.360Z,1.80
2017-12-21T02:18:15.614Z,1.60
2017-12-21T02:20:43.075Z,1.67
2017-12-21T02:23:10.558Z,2.07
2017-12-21T02:25:38.030Z,2.27
2017-12-21T02:28:05.503Z,2.10
2017-12-21T02:30:32.973Z,2.30
2017-12-21T02:33:00.442Z,2.30
2017-12-21T02:35:27.908Z,1.90
2017-12-21T02:37:55.399Z,1.90
2017-12-21T02:40:23.667Z,2.13
2017-12-21T02:42:51.914Z,2.73
2017-12-21T02:45:19.390Z,2.70
2017-12-21T02:47:46.860Z,2.70
2017-12-21T02:50:14.325Z,3.60
2017-12-21T02:52:42.578Z,2.43
2017-12-21T02:55:10.043Z,2.47
2017-12-21T02:57:37.514Z,2.50
2017-12-21T03:00:05.007Z,2.50
2017-12-21T03:02:32.470Z,2.93
2017-12-21T03:04:59.963Z,2.70
2017-12-21T03:07:27.424Z,2.87
2017-12-21T03:09:54.896Z,3.67
2017-12-21T03:12:22.351Z,3.43
2017-12-21T03:14:49.847Z,3.00
2017-12-21T03:17:17.324Z,3.30
2017-12-21T03:19:44.808Z,3.20
2017-12-21T03:22:12.255Z,3.90
2017-12-21T03:24:39.719Z,3.70
2017-12-21T03:27:07.178Z,3.73
2017-12-21T03:29:34.682Z,3.67
2017-12-21T03:32:02.910Z,4.20
2017-12-21T03:34:30.384Z,3.70
2017-12-21T03:36:58.613Z,4.07
2017-12-21T03:39:26.097Z,3.83
2017-12-21T03:41:53.554Z,3.87
2017-12-21T03:44:21.864Z,3.30
2017-12-21T03:46:49.324Z,4.20
2017-12-21T03:49:16.804Z,4.20
2017-12-21T03:51:45.042Z,4.07
2017-12-21T03:54:12.535Z,4.20
2017-12-21T03:56:41.416Z,4.10
2017-12-21T03:59:08.888Z,4.43
2017-12-21T04:01:37.107Z,3.90
2017-12-21T04:04:04.640Z,4.40
2017-12-21T04:06:32.094Z,4.00
2017-12-21T04:08:59.558Z,4.27
2017-12-21T04:11:27.006Z,3.67
2017-12-21T04:13:54.484Z,3.30
2017-12-21T04:16:21.946Z,3.60
2017-12-21T04:18:49.420Z,4.07
2017-12-21T04:21:16.893Z,3.37
2017-12-21T04:23:44.373Z,3.70
2017-12-21T04:26:11.856Z,3.10
2017-12-21T04:28:40.090Z,4.17
2017-12-21T04:31:07.547Z,3.60
2017-12-21T04:33:35.031Z,3.43
2017-12-21T04:36:03.264Z,3.60
2017-12-21T04:38:30.723Z,3.50
2017-12-21T04:40:58.179Z,3.40
2017-12-21T04:43:25.672Z,3.80
2017-12-21T04:45:53.185Z,3.23
2017-12-21T04:48:20.663Z,2.93
2017-12-21T04:50:48.116Z,3.20
2017-12-21T04:53:15.596Z,3.17
2017-12-21T04:55:43.055Z,3.50
2017-12-21T04:58:10.524Z,3.13
2017-12-21T05:00:37.991Z,3.53
2017-12-21T05:03:06.235Z,3.17
2017-12-21T05:05:33.699Z,2.13
2017-12-21T05:08:01.199Z,2.73
2017-12-21T05:10:28.724Z,2.30
2017-12-21T05:12:56.171Z,2.60
2017-12-21T05:15:23.673Z,3.23
2017-12-21T05:17:51.923Z,2.60
2017-12-21T05:20:19.395Z,2.77
2017-12-21T05:22:47.625Z,2.60
2017-12-21T05:25:15.099Z,1.80
2017-12-21T05:27:42.582Z,2.80
2017-12-21T05:30:10.064Z,2.70
2017-12-21T05:32:37.528Z,3.47
2017-12-21T05:35:05.019Z,2.40
2017-12-21T05:37:32.508Z,2.70
2017-12-21T05:40:01.196Z,3.23
2017-12-21T05:42:28.667Z,3.10
2017-12-21T05:44:56.942Z,3.60
2017-12-21T05:47:25.224Z,2.97
2017-12-21T05:49:53.839Z,3.40
2017-12-21T05:52:21.303Z,3.20
2017-12-21T05:54:48.774Z,2.90
2017-12-21T05:57:16.261Z,3.57
2017-12-21T05:59:43.811Z,2.77
2017-12-21T06:02:11.294Z,3.83
2017-12-21T06:04:38.780Z,3.13
2017-12-21T06:07:06.256Z,3.50
2017-12-21T06:09:33.714Z,2.80
2017-12-21T06:12:01.176Z,2.80
2017-12-21T06:14:28.643Z,3.03
2017-12-21T06:16:56.099Z,2.80
2017-12-21T06:19:23.562Z,2.67
2017-12-21T06:21:51.027Z,2.53
2017-12-21T06:24:18.498Z,2.50
2017-12-21T06:26:45.954Z,2.70
2017-12-21T06:29:13.426Z,2.67
2017-12-21T06:31:40.899Z,2.70
2017-12-21T06:34:09.139Z,2.70
2017-12-21T06:36:36.595Z,2.57
2017-12-21T06:39:04.067Z,2.37
2017-12-21T06:41:31.535Z,2.60
2017-12-21T06:43:59.004Z,2.10
2017-12-21T06:46:27.228Z,2.17
2017-12-21T06:48:54.702Z,2.63
2017-12-21T06:51:22.154Z,1.60
2017-12-21T06:53:49.619Z,2.13
2017-12-21T06:56:17.088Z,1.90
2017-12-21T06:58:44.562Z,2.00
2017-12-21T07:01:12.014Z,2.03
2017-12-21T07:03:39.472Z,1.73
2017-12-21T07:06:06.943Z,1.90
2017-12-21T07:08:35.171Z,2.00
2017-12-21T07:11:02.658Z,1.50
2017-12-21T07:13:30.111Z,1.40
2017-12-21T07:15:57.575Z,1.60
2017-12-21T07:18:25.035Z,1.40
2017-12-21T07:20:52.515Z,1.50
2017-12-21T07:23:20.740Z,1.53
2017-12-21T07:25:48.203Z,1.70
2017-12-21T07:28:15.671Z,1.00
2017-12-21T07:30:43.135Z,1.20
2017-12-21T07:33:10.582Z,0.77
2017-12-21T07:35:38.059Z,0.80
2017-12-21T07:38:05.506Z,0.80
2017-12-21T07:40:32.990Z,0.73
2017-12-21T07:43:01.207Z,0.70
2017-12-21T07:45:28.670Z,0.80
2017-12-21T07:47:56.130Z,1.33
2017-12-21T07:50:23.602Z,0.90
2017-12-21T07:52:51.054Z,0.70
2017-12-21T07:55:18.531Z,0.80
2017-12-21T07:57:45.992Z,0.77
2017-12-21T08:00:13.455Z,0.80
2017-12-21T08:02:40.941Z,0.90
2017-12-21T08:05:09.178Z,1.10
2017-12-21T08:07:36.650Z,0.90
2017-12-21T08:10:04.137Z,1.20
2017-12-21T08:12:32.358Z,0.80
2017-12-21T08:14:59.831Z,0.63
2017-12-21T08:17:27.295Z,1.00
2017-12-21T08:19:54.754Z,0.73
2017-12-21T08:22:22.219Z,1.03
2017-12-21T08:24:49.682Z,0.80
2017-12-21T08:27:17.134Z,0.73
2017-12-21T08:29:44.612Z,0.50
2017-12-21T08:32:12.842Z,1.23
2017-12-21T08:34:40.313Z,1.37
2017-12-21T08:37:07.767Z,1.13
2017-12-21T08:39:35.236Z,0.60
2017-12-21T08:42:02.690Z,1.40
2017-12-21T08:44:30.164Z,1.10
2017-12-21T08:46:58.402Z,1.60
2017-12-21T08:49:25.883Z,0.87
2017-12-21T08:51:53.336Z,0.80
2017-12-21T08:54:20.799Z,0.87
2017-12-21T08:56:48.250Z,0.73
2017-12-21T08:59:15.710Z,1.13
2017-12-21T09:01:43.179Z,0.97
2017-12-21T09:04:10.638Z,1.33
2017-12-21T09:06:38.140Z,1.13
2017-12-21T09:09:06.343Z,1.20
2017-12-21T09:11:33.806Z,1.07
2017-12-21T09:14:01.267Z,1.03
2017-12-21T09:16:28.727Z,0.90
2017-12-21T09:18:56.181Z,1.40
2017-12-21T09:21:23.653Z,0.70
2017-12-21T09:23:51.120Z,1.10
2017-12-21T09:26:18.585Z,1.07
2017-12-21T09:28:46.042Z,0.97
2017-12-21T09:31:13.855Z,1.23
2017-12-21T09:33:41.307Z,1.00
2017-12-21T09:36:08.784Z,0.90
2017-12-21T09:38:36.239Z,0.83
2017-12-21T09:41:03.707Z,0.63
2017-12-21T09:43:31.162Z,0.80
2017-12-21T09:45:58.623Z,0.90
2017-12-21T09:48:26.844Z,0.80
2017-12-21T09:50:55.075Z,0.80
2017-12-21T09:53:22.551Z,0.60
2017-12-21T09:55:50.011Z,0.90
2017-12-21T09:58:17.508Z,0.70
2017-12-21T10:00:45.747Z,0.70
2017-12-21T10:03:14.069Z,0.77
2017-12-21T10:05:41.539Z,0.70
2017-12-21T10:08:08.946Z,1.13
2017-12-21T10:10:36.421Z,0.97
2017-12-21T10:13:04.655Z,1.20
2017-12-21T10:15:32.119Z,0.90
2017-12-21T10:17:59.567Z,0.90
2017-12-21T10:20:27.051Z,0.67
2017-12-21T10:22:54.536Z,0.70
2017-12-21T10:25:22.777Z,0.60
2017-12-21T10:27:50.238Z,0.87
2017-12-21T10:30:17.704Z,0.60
2017-12-21T10:32:45.162Z,0.80
2017-12-21T10:35:12.655Z,0.80
2017-12-21T10:37:40.877Z,1.10
2017-12-21T10:40:08.637Z,0.53
2017-12-21T10:42:36.095Z,0.60
2017-12-21T10:45:03.567Z,1.00
2017-12-21T10:50:23.735Z,0.60
2017-12-21T10:52:51.196Z,0.60
2017-12-21T10:55:18.663Z,0.63
2017-12-21T10:57:46.155Z,0.77
2017-12-21T11:00:13.606Z,0.70
2017-12-21T11:02:41.059Z,1.07
2017-12-21T11:05:08.517Z,0.93
2017-12-21T11:07:35.974Z,1.00
2017-12-21T11:10:03.477Z,0.80
2017-12-21T11:12:30.915Z,1.10
2017-12-21T11:14:58.390Z,1.17
2017-12-21T11:17:25.848Z,0.90
2017-12-21T11:19:54.070Z,0.80
2017-12-21T11:22:21.543Z,1.10
2017-12-21T11:24:49.003Z,0.93
2017-12-21T11:27:16.458Z,1.10
2017-12-21T11:29:43.915Z,1.33
2017-12-21T11:32:11.397Z,1.00
2017-12-21T11:34:38.838Z,0.97
2017-12-21T11:37:06.315Z,1.50
2017-12-21T11:39:33.772Z,1.40
2017-12-21T11:42:01.243Z,1.27
2017-12-21T11:44:29.464Z,1.43
2017-12-21T11:46:56.934Z,1.40
2017-12-21T11:49:24.390Z,1.87
2017-12-21T11:51:51.865Z,1.43
2017-12-21T11:54:19.323Z,1.60
2017-12-21T11:56:46.795Z,1.90
2017-12-21T11:59:14.256Z,1.60
2017-12-21T12:01:41.735Z,2.17
2017-12-21T12:04:09.963Z,3.90
2017-12-21T12:06:37.469Z,2.23
2017-12-21T12:09:05.702Z,1.83
2017-12-21T12:11:33.191Z,1.43
2017-12-21T12:14:00.644Z,2.43
2017-12-21T12:16:28.103Z,3.10
2017-12-21T12:18:55.567Z,3.23
2017-12-21T12:21:23.033Z,2.57
2017-12-21T12:23:51.260Z,1.60
2017-12-21T12:26:18.728Z,1.60
2017-12-21T12:28:46.187Z,2.03
2017-12-21T12:31:13.767Z,1.67
2017-12-21T12:33:41.214Z,2.33
2017-12-21T12:36:09.487Z,2.10
2017-12-21T12:38:36.947Z,1.93
2017-12-21T12:41:04.422Z,1.90
2017-12-21T12:43:31.882Z,2.03
2017-12-21T12:45:59.346Z,2.30
2017-12-21T12:48:27.574Z,1.80
2017-12-21T12:50:55.065Z,2.47
2017-12-21T12:53:22.523Z,2.93
2017-12-21T12:55:49.991Z,2.17
2017-12-21T12:58:17.495Z,2.67
2017-12-21T13:00:44.951Z,2.43
2017-12-21T13:03:12.512Z,1.50
2017-12-21T13:05:40.015Z,1.60
2017-12-21T13:08:07.483Z,1.40
2017-12-21T13:10:34.960Z,1.33
2017-12-21T13:13:03.190Z,1.40
2017-12-21T13:15:30.655Z,1.40
2017-12-21T13:17:58.254Z,1.70
2017-12-21T13:20:26.472Z,2.00
2017-12-21T13:22:53.938Z,1.30
2017-12-21T13:25:21.405Z,2.03
2017-12-21T13:27:48.991Z,2.00
2017-12-21T13:30:17.991Z,2.10
2017-12-21T13:32:46.237Z,1.80
2017-12-21T13:35:13.705Z,1.50
2017-12-21T13:37:41.171Z,1.40
2017-12-21T13:40:10.132Z,1.83
2017-12-21T13:42:37.774Z,1.60
2017-12-21T13:45:05.242Z,1.50
2017-12-21T13:47:32.742Z,1.60
2017-12-21T13:50:01.720Z,1.43
2017-12-21T13:52:29.197Z,2.00
2017-12-21T13:54:56.654Z,1.67
2017-12-21T13:57:24.931Z,1.90
2017-12-21T13:59:52.498Z,1.27
2017-12-21T14:02:19.968Z,1.70
2017-12-21T14:04:48.202Z,1.93
2017-12-21T14:07:15.675Z,1.70
2017-12-21T14:09:43.147Z,1.70
2017-12-21T14:12:10.613Z,2.00
2017-12-21T14:14:38.071Z,1.70
2017-12-21T14:17:05.533Z,2.10
2017-12-21T14:19:33.755Z,2.10
2017-12-21T14:22:01.226Z,2.20
2017-12-21T14:24:28.691Z,3.37
2017-12-21T14:26:56.175Z,2.90
2017-12-21T14:29:23.639Z,3.37
2017-12-21T14:31:51.105Z,3.30
2017-12-21T14:34:19.389Z,3.30
2017-12-21T14:36:47.690Z,3.50
2017-12-21T14:39:15.226Z,4.00
2017-12-21T14:41:42.713Z,4.30
2017-12-21T14:44:11.011Z,4.67
2017-12-21T14:46:38.490Z,4.37
2017-12-21T14:49:05.943Z,4.47
2017-12-21T14:51:33.414Z,3.40
2017-12-21T14:54:00.920Z,4.53
2017-12-21T14:56:28.412Z,4.87
2017-12-21T14:58:55.875Z,3.97
2017-12-21T15:01:23.396Z,4.80
2017-12-21T15:03:51.019Z,5.50
2017-12-21T15:06:19.260Z,6.37
2017-12-21T15:08:46.754Z,6.23
2017-12-21T15:11:14.241Z,5.60
2017-12-21T15:13:41.691Z,6.60
2017-12-21T15:16:09.157Z,6.73
2017-12-21T15:18:36.642Z,6.10
2017-12-21T15:21:04.094Z,5.70
2017-12-21T15:23:31.563Z,6.10
2017-12-21T15:25:59.033Z,5.83
2017-12-21T15:28:26.494Z,6.13
2017-12-21T15:30:53.965Z,7.13
2017-12-21T15:33:21.420Z,6.27
2017-12-21T15:35:49.148Z,6.77
2017-12-21T15:38:16.606Z,7.40
2017-12-21T15:40:44.062Z,8.50
2017-12-21T15:43:11.534Z,11.17
2017-12-21T15:45:38.997Z,9.77
2017-12-21T15:48:06.474Z,11.10
2017-12-21T15:50:33.946Z,9.30
2017-12-21T15:53:01.410Z,10.97
2017-12-21T15:55:29.650Z,11.33
2017-12-21T15:57:57.122Z,11.67
2017-12-21T16:03:17.301Z,14.03
2017-12-21T16:05:44.762Z,13.67
2017-12-21T16:08:12.234Z,12.27
2017-12-21T16:10:39.704Z,14.97
2017-12-21T16:13:07.204Z,14.40
2017-12-21T16:15:35.576Z,14.30
2017-12-21T16:18:03.113Z,15.50
2017-12-21T16:20:30.596Z,14.13
2017-12-21T16:22:58.851Z,14.57
2017-12-21T16:25:27.116Z,13.60
2017-12-21T16:27:54.596Z,14.87
2017-12-21T16:30:22.826Z,15.90
2017-12-21T16:32:50.295Z,14.70
2017-12-21T16:35:17.763Z,15.43
2017-12-21T16:37:45.250Z,15.60
2017-12-21T16:40:13.499Z,15.77
2017-12-21T16:42:40.988Z,13.83
2017-12-21T16:45:09.222Z,15.77
2017-12-21T16:47:36.812Z,15.07
2017-12-21T16:50:05.062Z,15.07
2017-12-21T16:52:32.546Z,14.20
2017-12-21T16:55:00.095Z,15.80
2017-12-21T16:57:27.583Z,15.80
2017-12-21T16:59:55.823Z,15.53
2017-12-21T17:02:23.292Z,17.23
2017-12-21T17:04:52.262Z,16.20
2017-12-21T17:07:19.839Z,15.67
2017-12-21T17:09:47.399Z,16.73
2017-12-21T17:12:14.879Z,17.07
2017-12-21T17:14:43.106Z,16.60
2017-12-21T17:17:10.575Z,16.50
2017-12-21T17:19:38.038Z,18.17
2017-12-21T17:22:05.515Z,17.30
2017-12-21T17:24:32.987Z,17.63
2017-12-21T17:27:01.312Z,15.97
2017-12-21T17:29:28.801Z,15.00
2017-12-21T17:31:56.303Z,15.40
2017-12-21T17:34:23.775Z,13.70
2017-12-21T17:36:51.241Z,15.90
2017-12-21T17:39:18.706Z,16.40
2017-12-21T17:41:46.191Z,17.23
2017-12-21T17:44:13.668Z,17.30
2017-12-21T17:46:41.162Z,15.70
2017-12-21T17:49:08.632Z,16.30
2017-12-21T17:51:36.110Z,16.10
2017-12-21T17:54:03.594Z,18.20
2017-12-21T17:56:31.056Z,17.90
2017-12-21T17:58:58.518Z,15.07
2017-12-21T18:01:25.982Z,19.23
2017-12-21T18:03:54.614Z,18.20
2017-12-21T18:06:22.079Z,17.80
2017-12-21T18:08:49.556Z,17.17
2017-12-21T18:11:17.045Z,16.57
2017-12-21T18:13:44.523Z,19.20
2017-12-21T18:16:11.983Z,19.07
2017-12-21T18:18:39.460Z,18.47
2017-12-21T18:21:07.062Z,16.20
2017-12-21T18:23:34.586Z,16.90
2017-12-21T18:26:02.152Z,17.67
2017-12-21T18:28:29.635Z,17.20
2017-12-21T18:30:57.105Z,16.70
2017-12-21T18:33:24.607Z,17.73
2017-12-21T18:35:52.083Z,19.57
2017-12-21T18:38:19.560Z,17.53
2017-12-21T18:40:47.042Z,17.70
2017-12-21T18:43:14.710Z,17.60
2017-12-21T18:45:42.954Z,17.67
2017-12-21T18:48:10.481Z,18.00
2017-12-21T18:50:37.946Z,18.47
2017-12-21T18:53:05.422Z,17.27
2017-12-21T18:55:32.928Z,18.00
2017-12-21T18:58:01.165Z,18.27
2017-12-21T19:00:28.652Z,16.30
2017-12-21T19:02:56.172Z,18.00
2017-12-21T19:05:23.712Z,15.63
2017-12-21T19:07:51.202Z,17.10
2017-12-21T19:10:18.666Z,16.43
2017-12-21T19:12:46.193Z,18.37
2017-12-21T19:15:13.687Z,18.63
2017-12-21T19:17:41.294Z,16.93
2017-12-21T19:20:08.766Z,15.53
2017-12-21T19:22:36.267Z,17.10
2017-12-21T19:25:03.735Z,16.20
2017-12-21T19:27:31.226Z,16.23
2017-12-21T19:29:58.692Z,17.60
2017-12-21T19:32:26.178Z,16.13
2017-12-21T19:34:53.682Z,16.10
2017-12-21T19:37:21.934Z,17.03
2017-12-21T19:39:49.504Z,18.37
2017-12-21T19:42:16.966Z,17.60
2017-12-21T19:44:44.438Z,15.80
2017-12-21T19:47:12.692Z,16.33
2017-12-21T19:49:40.195Z,16.73
2017-12-21T19:52:07.647Z,17.80
2017-12-21T19:54:35.126Z,17.43
2017-12-21T19:57:02.602Z,15.20
2017-12-21T19:59:30.116Z,16.17
2017-12-21T20:01:58.389Z,16.60
2017-12-21T20:04:26.646Z,15.60
2017-12-21T20:06:54.115Z,15.90
2017-12-21T20:09:22.462Z,13.40
2017-12-21T20:11:49.976Z,13.97
2017-12-21T20:14:18.282Z,13.10
2017-12-21T20:16:45.755Z,10.83
2017-12-21T20:19:13.235Z,12.03
2017-12-21T20:21:40.703Z,11.73
2017-12-21T20:24:08.202Z,10.67
2017-12-21T20:26:35.663Z,11.40
2017-12-21T20:29:03.168Z,11.80
2017-12-21T20:31:30.634Z,12.60
2017-12-21T20:33:59.002Z,12.13
2017-12-21T20:36:26.494Z,12.37
2017-12-21T20:38:54.730Z,11.17
2017-12-21T20:41:22.196Z,12.10
2017-12-21T20:43:49.673Z,11.40
2017-12-21T20:46:17.918Z,10.60
2017-12-21T20:48:45.431Z,11.10
2017-12-21T20:51:12.916Z,13.87
2017-12-21T20:53:40.382Z,14.67
2017-12-21T20:56:07.851Z,14.63
2017-12-21T20:58:35.374Z,13.50
2017-12-21T21:01:02.940Z,13.43
2017-12-21T21:03:30.414Z,14.00
2017-12-21T21:05:57.907Z,12.90
2017-12-21T21:08:25.376Z,13.93
2017-12-21T21:10:53.622Z,13.70
2017-12-21T21:13:21.103Z,12.30
2017-12-21T21:15:48.755Z,12.83
2017-12-21T21:18:17.115Z,13.50
2017-12-21T21:20:44.596Z,12.20
2017-12-21T21:23:12.115Z,13.80
2017-12-21T21:25:39.531Z,14.30
2017-12-21T21:28:07.767Z,11.90
2017-12-21T21:30:35.271Z,14.40
2017-12-21T21:33:03.494Z,15.70
2017-12-21T21:35:30.991Z,12.93
2017-12-21T21:37:59.248Z,14.13
2017-12-21T21:40:26.751Z,13.57
2017-12-21T21:42:54.980Z,13.90
2017-12-21T21:45:22.504Z,13.00
2017-12-21T21:47:50.007Z,14.07
2017-12-21T21:50:17.483Z,16.70
2017-12-21T21:52:45.723Z,15.17
2017-12-21T21:55:13.202Z,13.57
2017-12-21T21:57:40.686Z,13.70
2017-12-21T22:00:08.161Z,13.97
2017-12-21T22:02:35.641Z,15.40
2017-12-21T22:05:03.132Z,12.80
2017-12-21T22:07:30.615Z,14.90
2017-12-21T22:09:58.881Z,13.70
2017-12-21T22:12:27.132Z,12.20
2017-12-21T22:14:54.590Z,13.10
2017-12-21T22:17:22.079Z,13.83
2017-12-21T22:19:50.332Z,12.80
2017-12-21T22:22:17.800Z,13.40
2017-12-21T22:24:45.264Z,12.87
2017-12-21T22:27:13.524Z,13.87
2017-12-21T22:29:40.988Z,13.83
2017-12-21T22:32:08.467Z,13.60
2017-12-21T22:34:36.774Z,14.77
2017-12-21T22:37:04.276Z,13.40
2017-12-21T22:39:31.733Z,12.60
2017-12-21T22:41:59.238Z,13.17
2017-12-21T22:44:26.719Z,12.60
2017-12-21T22:46:54.198Z,14.27
2017-12-21T22:49:22.143Z,12.90
2017-12-21T22:51:49.627Z,14.17
2017-12-21T22:54:17.081Z,12.93
2017-12-21T22:56:44.570Z,12.63
2017-12-21T22:59:12.046Z,14.63
2017-12-21T23:01:40.286Z,13.47
2017-12-21T23:04:07.752Z,14.27
2017-12-21T23:06:36.118Z,12.93
2017-12-21T23:09:03.570Z,11.67
2017-12-21T23:11:31.037Z,14.50
2017-12-21T23:13:58.521Z,13.37
2017-12-21T23:16:26.750Z,11.83
2017-12-21T23:18:54.227Z,13.40
2017-12-21T23:21:21.963Z,13.63
2017-12-21T23:23:49.430Z,14.67
2017-12-21T23:26:16.925Z,13.70
2017-12-21T23:28:44.430Z,14.43
2017-12-21T23:31:11.894Z,12.80
2017-12-21T23:33:39.444Z,12.63
2017-12-21T23:36:06.926Z,14.13
2017-12-21T23:38:34.439Z,12.77
2017-12-21T23:41:02.667Z,13.27
2017-12-21T23:43:30.147Z,14.30
2017-12-21T23:45:57.614Z,14.70
2017-12-21T23:48:25.093Z,16.57
2017-12-21T23:50:53.369Z,16.60
2017-12-21T23:53:20.827Z,16.40
2017-12-21T23:55:49.058Z,15.90
2017-12-21T23:58:16.538Z,15.77
